Time;durP1;ratioP1;P1;durP2;ratioP2;P2;SDS_P1;SDS_P2;PMS_P1;PMS_P2;Temp;Humidity;BMP_temperature;BMP_pressure;BME280_temperature;BME280_humidity;BME280_pressure;Samples;Min_cycle;Max_cycle;Signal;HPM_P1;HPM_P2
2023/05/26 00:02:10;;;;;;;19.70;6.70;;;;;;;13.25;64.02;101030.75;5042722;28;20040;-77
2023/05/26 00:04:35;;;;;;;18.58;5.93;;;;;;;13.25;64.21;101028.84;5046249;28;20033;-77
2023/05/26 00:07:01;;;;;;;24.05;6.63;;;;;;;13.23;64.26;101028.28;5047123;28;20036;-78
2023/05/26 00:09:26;;;;;;;28.10;6.30;;;;;;;13.29;64.12;101030.00;5046498;28;20056;-78
2023/05/26 00:11:51;;;;;;;23.90;7.70;;;;;;;13.28;63.90;101035.75;5046519;28;20262;-77
2023/05/26 00:14:17;;;;;;;22.88;8.23;;;;;;;13.12;64.17;101034.69;5047011;28;20124;-77
2023/05/26 00:16:43;;;;;;;26.48;7.10;;;;;;;13.18;64.15;101031.75;5046750;28;20039;-77
2023/05/26 00:19:08;;;;;;;28.02;7.82;;;;;;;13.19;63.92;101033.44;5046284;28;20041;-77
2023/05/26 00:21:38;;;;;;;41.90;9.10;;;;;;;13.20;64.11;101036.97;5046729;28;20064;-77
2023/05/26 00:24:03;;;;;;;37.33;6.88;;;;;;;13.14;64.11;101038.00;5046268;28;20266;-77
2023/05/26 00:26:28;;;;;;;20.58;6.43;;;;;;;13.11;64.10;101046.72;5046455;28;20028;-78
2023/05/26 00:28:54;;;;;;;22.73;6.47;;;;;;;13.06;64.21;101042.81;5046425;28;20032;-77
2023/05/26 00:31:19;;;;;;;25.87;7.97;;;;;;;13.04;64.84;101041.41;5046417;28;20254;-77
2023/05/26 00:33:44;;;;;;;27.00;7.47;;;;;;;13.01;64.38;101041.91;5046205;28;20434;-78
2023/05/26 00:36:09;;;;;;;32.97;7.97;;;;;;;12.99;64.55;101044.06;5046318;28;20025;-78
2023/05/26 00:38:35;;;;;;;29.10;7.40;;;;;;;12.99;64.95;101049.53;5045850;28;20268;-78
2023/05/26 00:41:00;;;;;;;24.45;7.47;;;;;;;13.07;64.08;101051.88;5046131;28;20047;-78
2023/05/26 00:43:26;;;;;;;21.02;5.25;;;;;;;12.89;64.87;101045.56;5045874;28;20060;-78
2023/05/26 00:45:51;;;;;;;34.53;6.68;;;;;;;12.98;64.64;101047.91;5045868;28;20115;-78
2023/05/26 00:48:16;;;;;;;29.33;8.60;;;;;;;13.06;64.14;101044.72;5045649;28;20036;-78
2023/05/26 00:50:42;;;;;;;15.90;7.27;;;;;;;12.92;64.66;101042.31;5046133;28;20314;-78
2023/05/26 00:53:08;;;;;;;27.73;6.88;;;;;;;12.89;64.43;101048.31;5045982;28;20269;-78
2023/05/26 00:55:33;;;;;;;22.55;5.90;;;;;;;12.89;64.02;101044.75;5046158;28;20025;-78
2023/05/26 00:57:59;;;;;;;27.38;7.75;;;;;;;12.87;64.57;101046.91;5045582;28;20033;-77
2023/05/26 01:00:25;;;;;;;16.08;4.70;;;;;;;12.85;64.42;101049.88;5046701;28;20083;-76
2023/05/26 01:02:55;;;;;;;25.50;6.28;;;;;;;12.89;63.88;101051.06;5046012;28;20053;-75
2023/05/26 01:05:21;;;;;;;28.67;7.32;;;;;;;12.90;63.20;101052.69;5045933;28;20021;-75
2023/05/26 01:07:46;;;;;;;18.30;6.43;;;;;;;12.85;63.63;101049.88;5045603;28;20024;-75
2023/05/26 01:10:12;;;;;;;30.30;7.55;;;;;;;12.76;63.95;101045.88;5045261;28;20045;-76
2023/05/26 01:12:53;;;;;;;21.73;6.80;;;;;;;12.72;63.64;101046.41;5045849;28;20107;-76
2023/05/26 01:15:26;;;;;;;25.70;7.15;;;;;;;12.56;64.12;101044.47;5045611;28;20032;-75
2023/05/26 01:18:03;;;;;;;17.48;6.05;;;;;;;12.61;63.75;101053.59;5045302;28;20029;-76
2023/05/26 01:20:53;;;;;;;26.73;6.45;;;;;;;12.61;64.08;101058.22;5045444;28;20053;-75
2023/05/26 01:23:48;;;;;;;31.33;7.80;;;;;;;12.56;63.85;101064.44;5045750;28;20052;-76
2023/05/26 01:26:31;;;;;;;25.63;7.28;;;;;;;12.47;64.11;101065.91;5045378;28;20790;-75
2023/05/26 01:29:05;;;;;;;27.77;6.67;;;;;;;12.55;64.04;101059.25;5045097;28;20055;-76
2023/05/26 01:31:33;;;;;;;14.15;4.65;;;;;;;12.55;64.65;101067.44;5045309;28;20032;-76
2023/05/26 01:33:59;;;;;;;31.48;5.70;;;;;;;12.58;64.37;101064.19;5045352;28;20488;-76
2023/05/26 01:36:24;;;;;;;30.40;6.43;;;;;;;12.47;64.67;101065.91;5044821;28;20024;-75
2023/05/26 01:38:49;;;;;;;20.20;7.45;;;;;;;12.40;65.13;101070.72;5044705;28;20039;-76
2023/05/26 01:41:23;;;;;;;32.30;7.67;;;;;;;12.39;64.82;101064.41;5045058;28;20029;-76
2023/05/26 01:44:02;;;;;;;29.43;7.03;;;;;;;12.39;65.17;101064.41;5044861;28;20274;-75
2023/05/26 01:46:49;;;;;;;24.77;5.00;;;;;;;12.42;64.83;101063.94;5044643;28;20132;-75
2023/05/26 01:49:15;;;;;;;32.05;6.07;;;;;;;12.41;64.83;101062.25;5044612;28;20048;-75
2023/05/26 01:51:46;;;;;;;20.58;5.35;;;;;;;12.36;64.86;101059.44;5045121;28;20029;-75
2023/05/26 01:54:16;;;;;;;38.13;8.35;;;;;;;12.33;65.35;101065.38;5044819;28;20623;-75
2023/05/26 01:56:44;;;;;;;22.13;7.10;;;;;;;12.36;64.97;101070.38;5044974;28;20061;-76
2023/05/26 01:59:10;;;;;;;27.60;7.45;;;;;;;12.24;65.34;101060.31;5044235;28;20449;-76
2023/05/26 02:01:35;;;;;;;28.00;7.45;;;;;;;12.16;65.41;101066.19;5044709;28;20028;-76
2023/05/26 02:04:01;;;;;;;25.13;6.55;;;;;;;12.14;65.96;101062.88;5044679;28;20103;-75
2023/05/26 02:06:26;;;;;;;28.67;6.05;;;;;;;12.16;65.70;101054.41;5044884;28;20483;-76
2023/05/26 02:08:51;;;;;;;22.13;7.32;;;;;;;12.14;65.52;101058.22;5044119;28;20044;-76
2023/05/26 02:11:17;;;;;;;18.65;5.75;;;;;;;12.07;65.76;101062.13;5044822;28;20061;-75
2023/05/26 02:13:45;;;;;;;34.33;7.00;;;;;;;11.92;65.93;101066.22;5044700;28;20126;-75
2023/05/26 02:16:11;;;;;;;27.20;7.10;;;;;;;11.79;66.95;101057.25;5044767;28;20040;-76
2023/05/26 02:18:36;;;;;;;20.75;6.18;;;;;;;11.84;66.77;101063.88;5043755;28;20075;-76
2023/05/26 02:21:02;;;;;;;21.35;6.75;;;;;;;11.86;66.30;101061.72;5043977;28;20126;-76
2023/05/26 02:23:27;;;;;;;33.75;7.32;;;;;;;11.82;66.79;101060.56;5043718;28;20025;-76
2023/05/26 02:25:52;;;;;;;17.57;4.67;;;;;;;11.83;66.67;101062.22;5043793;28;20025;-75
2023/05/26 02:28:18;;;;;;;31.30;6.93;;;;;;;11.86;67.20;101061.72;5043908;28;20617;-75
2023/05/26 02:30:43;;;;;;;27.03;5.50;;;;;;;11.94;66.75;101064.06;5045180;28;20303;-78
2023/05/26 02:33:08;;;;;;;26.98;6.70;;;;;;;11.83;66.96;101062.22;5044426;28;20265;-78
2023/05/26 02:35:34;;;;;;;19.55;6.05;;;;;;;11.78;67.40;101060.19;5043827;28;20082;-77
2023/05/26 02:37:59;;;;;;;25.90;6.80;;;;;;;11.76;67.61;101054.97;5043858;28;20029;-77
2023/05/26 02:40:24;;;;;;;31.60;8.43;;;;;;;11.74;67.29;101065.31;5045225;28;20024;-76
2023/05/26 02:42:49;;;;;;;32.75;6.85;;;;;;;11.71;67.68;101064.97;5043942;28;20426;-76
2023/05/26 02:45:15;;;;;;;27.13;5.73;;;;;;;11.64;67.89;101067.81;5043652;28;20036;-76
2023/05/26 02:47:40;;;;;;;34.40;7.25;;;;;;;11.65;67.59;101066.75;5043819;28;20830;-76
2023/05/26 02:50:06;;;;;;;25.07;7.23;;;;;;;11.67;67.82;101064.63;5043355;28;20056;-75
2023/05/26 02:52:31;;;;;;;27.80;5.88;;;;;;;11.78;67.12;101071.97;5042300;28;20262;-76
2023/05/26 02:54:56;;;;;;;29.30;7.30;;;;;;;11.61;67.71;101068.31;5043918;28;20028;-75
2023/05/26 02:57:22;;;;;;;42.00;8.50;;;;;;;11.67;67.80;101070.09;5043578;28;20261;-76
2023/05/26 02:59:47;;;;;;;22.02;6.68;;;;;;;11.73;67.43;101071.88;5043600;28;20254;-75
2023/05/26 03:02:12;;;;;;;22.10;5.95;;;;;;;11.61;67.94;101068.31;5044023;28;20060;-76
2023/05/26 03:04:38;;;;;;;31.73;8.13;;;;;;;11.64;67.52;101065.09;5043754;28;20033;-75
2023/05/26 03:07:03;;;;;;;26.67;7.77;;;;;;;11.68;67.64;101066.28;5043630;28;20285;-75
2023/05/26 03:09:28;;;;;;;31.20;8.25;;;;;;;11.81;67.25;101064.34;5043112;28;20249;-76
2023/05/26 03:11:53;;;;;;;22.13;7.30;;;;;;;11.80;66.97;101058.03;5043421;28;20032;-76
2023/05/26 03:14:20;;;;;;;28.88;7.97;;;;;;;11.83;66.88;101062.22;5043493;28;20743;-76
2023/05/26 03:16:45;;;;;;;20.67;7.28;;;;;;;11.90;67.33;101062.88;5043444;28;20607;-75
2023/05/26 03:19:11;;;;;;;24.73;7.15;;;;;;;11.88;67.21;101063.13;5042753;28;20036;-75
2023/05/26 03:21:36;;;;;;;23.48;6.70;;;;;;;11.92;66.98;101060.75;5043384;28;20052;-76
2023/05/26 03:24:01;;;;;;;23.67;6.53;;;;;;;11.87;67.01;101075.16;5043529;28;20725;-76
2023/05/26 03:26:27;;;;;;;22.92;6.75;;;;;;;11.83;66.65;101067.66;5043299;28;20250;-76
2023/05/26 03:28:52;;;;;;;26.70;4.78;;;;;;;11.72;67.38;101075.66;5042536;28;20037;-76
2023/05/26 03:31:17;;;;;;;25.47;8.23;;;;;;;11.85;66.88;101073.72;5043348;28;20025;-76
2023/05/26 03:33:45;;;;;;;29.00;6.30;;;;;;;11.90;66.37;101069.19;5043343;28;20345;-76
2023/05/26 03:36:11;;;;;;;18.60;6.00;;;;;;;11.85;66.66;101071.00;5043271;28;20082;-77
2023/05/26 03:38:36;;;;;;;24.80;7.10;;;;;;;11.82;66.53;101066.03;5041612;28;20029;-76
2023/05/26 03:41:01;;;;;;;20.33;7.47;;;;;;;11.72;66.78;101078.38;5043476;28;20028;-76
2023/05/26 03:43:26;;;;;;;27.48;6.63;;;;;;;11.78;66.95;101079.31;5042978;28;20269;-76
2023/05/26 03:45:52;;;;;;;22.98;6.82;;;;;;;11.82;67.31;101085.16;5042747;28;20067;-76
2023/05/26 03:48:18;;;;;;;24.23;7.35;;;;;;;11.82;66.93;101083.22;5042832;28;20045;-75
2023/05/26 03:50:46;;;;;;;24.05;5.95;;;;;;;11.76;67.45;101090.50;5042907;28;20389;-76
2023/05/26 03:53:11;;;;;;;21.02;6.82;;;;;;;11.87;66.77;101085.25;5042974;28;20048;-75
2023/05/26 03:55:36;;;;;;;23.27;7.40;;;;;;;11.91;66.78;101091.88;5042896;28;20117;-76
2023/05/26 03:58:02;;;;;;;18.45;4.75;;;;;;;11.96;66.99;101082.97;5042581;28;20802;-75
2023/05/26 04:00:30;;;;;;;29.33;7.53;;;;;;;11.96;66.66;101081.06;5042373;28;20095;-75
2023/05/26 04:02:55;;;;;;;15.73;6.43;;;;;;;11.91;66.63;101080.97;5042872;28;20402;-76
2023/05/26 04:05:21;;;;;;;25.80;7.03;;;;;;;11.91;66.55;101091.88;5042426;28;20040;-75
2023/05/26 04:07:46;;;;;;;28.00;7.88;;;;;;;11.83;66.43;101095.84;5042308;28;20072;-75
2023/05/26 04:10:13;;;;;;;32.47;7.60;;;;;;;11.75;67.20;101090.75;5042463;28;20076;-75
2023/05/26 04:12:38;;;;;;;38.05;7.30;;;;;;;11.68;67.27;101085.41;5042612;28;20029;-76
2023/05/26 04:15:04;;;;;;;30.00;6.53;;;;;;;11.75;67.16;101086.13;5042826;28;20037;-76
2023/05/26 04:17:31;;;;;;;30.45;7.75;;;;;;;11.72;67.50;101094.78;5042982;28;20048;-75
2023/05/26 04:19:56;;;;;;;23.80;7.90;;;;;;;11.51;68.43;101091.56;5041667;28;20040;-75
2023/05/26 04:22:21;;;;;;;23.95;6.63;;;;;;;11.72;67.63;101094.78;5042990;28;20041;-75
2023/05/26 04:24:46;;;;;;;24.20;7.73;;;;;;;11.79;67.03;101098.22;5042954;28;20044;-75
2023/05/26 04:27:12;;;;;;;32.60;7.50;;;;;;;11.89;67.16;101094.03;5042627;28;20276;-75
2023/05/26 04:29:38;;;;;;;28.23;7.63;;;;;;;11.86;66.87;101095.34;5042094;28;20328;-75
2023/05/26 04:32:04;;;;;;;23.85;6.05;;;;;;;11.87;66.69;101102.47;5042495;28;20044;-76
2023/05/26 04:34:29;;;;;;;21.58;8.40;;;;;;;11.85;66.95;101103.78;5042579;28;20041;-77
2023/05/26 04:36:54;;;;;;;35.13;7.03;;;;;;;11.81;67.46;101102.59;5042640;28;20037;-76
2023/05/26 04:39:20;;;;;;;32.35;9.73;;;;;;;11.86;67.25;101106.28;5042394;28;20266;-74
2023/05/26 04:41:46;;;;;;;27.92;6.70;;;;;;;11.94;67.08;101107.78;5042620;28;20044;-76
2023/05/26 04:44:11;;;;;;;25.77;7.78;;;;;;;11.96;66.73;101110.31;5042220;28;20461;-76
2023/05/26 04:46:37;;;;;;;28.83;7.30;;;;;;;11.98;67.15;101110.91;5042181;28;20024;-75
2023/05/26 04:49:07;;;;;;;38.10;8.90;;;;;;;11.92;66.61;101109.94;5043064;28;20139;-75
2023/05/26 04:51:32;;;;;;;31.95;6.78;;;;;;;11.99;66.69;101109.81;5046275;28;20029;-76
2023/05/26 04:53:58;;;;;;;30.70;8.65;;;;;;;12.09;66.92;101104.56;5044612;28;20315;-75
2023/05/26 04:56:24;;;;;;;19.73;5.93;;;;;;;11.86;67.39;101102.69;5045812;28;20033;-76
2023/05/26 04:58:49;;;;;;;30.63;8.10;;;;;;;11.96;67.26;101100.19;5045552;28;20044;-75
2023/05/26 05:01:16;;;;;;;19.60;7.20;;;;;;;11.78;67.85;101109.38;5044518;28;20059;-76
2023/05/26 05:03:42;;;;;;;24.48;6.75;;;;;;;11.73;67.89;101107.38;5045732;28;20262;-75
2023/05/26 05:06:08;;;;;;;26.52;8.90;;;;;;;11.90;67.58;101107.44;5046142;28;20104;-75
2023/05/26 05:08:33;;;;;;;30.58;7.43;;;;;;;11.81;67.58;101108.06;5045518;28;20558;-75
2023/05/26 05:10:59;;;;;;;31.27;9.37;;;;;;;11.83;67.19;101106.75;5044373;28;20045;-76
2023/05/26 05:13:24;;;;;;;28.38;8.10;;;;;;;11.85;67.50;101104.63;5045900;28;20293;-76
2023/05/26 05:15:50;;;;;;;45.17;10.70;;;;;;;11.89;67.51;101103.06;5046059;28;20059;-75
2023/05/26 05:18:15;;;;;;;27.13;9.50;;;;;;;11.80;67.71;101107.22;5045474;28;20059;-75
2023/05/26 05:20:40;;;;;;;28.58;7.70;;;;;;;11.95;67.57;101103.16;5045424;28;20059;-75
2023/05/26 05:23:06;;;;;;;33.37;8.23;;;;;;;12.01;67.50;101105.78;5045833;28;20044;-76
2023/05/26 05:25:31;;;;;;;38.97;10.73;;;;;;;11.94;67.48;101116.00;5045323;28;20281;-76
2023/05/26 05:27:56;;;;;;;50.20;11.23;;;;;;;12.00;67.50;101115.03;5045479;28;20718;-75
2023/05/26 05:30:22;;;;;;;28.70;9.00;;;;;;;12.06;67.27;101113.22;5044039;28;20059;-75
2023/05/26 05:32:47;;;;;;;39.75;10.43;;;;;;;12.01;67.08;101116.72;5045426;28;20082;-75
2023/05/26 05:35:12;;;;;;;23.95;7.85;;;;;;;11.99;66.96;101124.31;5045483;28;20033;-75
2023/05/26 05:37:38;;;;;;;26.38;8.10;;;;;;;12.05;67.56;101118.94;5043954;28;20037;-75
2023/05/26 05:40:04;;;;;;;25.60;8.40;;;;;;;11.98;67.46;101125.38;5044972;28;20037;-76
2023/05/26 05:42:29;;;;;;;24.48;7.72;;;;;;;12.13;67.58;101113.13;5045511;28;20071;-77
2023/05/26 05:44:54;;;;;;;28.20;7.78;;;;;;;12.21;67.50;101120.13;5045095;28;20537;-76
2023/05/26 05:47:20;;;;;;;31.45;7.65;;;;;;;12.31;66.94;101122.22;5045414;28;20131;-75
2023/05/26 05:49:45;;;;;;;25.17;8.00;;;;;;;12.24;66.69;101128.66;5044691;28;20041;-76
2023/05/26 05:52:10;;;;;;;33.67;9.23;;;;;;;12.32;66.36;101145.78;5045358;28;20296;-75
2023/05/26 05:54:36;;;;;;;38.17;10.07;;;;;;;12.31;66.57;101141.38;5045113;28;20270;-76
2023/05/26 05:57:02;;;;;;;43.35;11.38;;;;;;;12.24;66.81;101144.25;5045016;28;20044;-75
2023/05/26 05:59:27;;;;;;;33.92;9.25;;;;;;;12.23;67.67;101142.59;5044619;28;20398;-76
2023/05/26 06:01:52;;;;;;;30.33;10.53;;;;;;;12.28;66.68;101145.44;5044026;28;20131;-75
2023/05/26 06:04:17;;;;;;;39.77;11.10;;;;;;;12.31;66.86;101152.31;5044882;28;20293;-75
2023/05/26 06:06:43;;;;;;;32.88;9.73;;;;;;;12.39;66.45;101151.91;5044766;28;20384;-76
2023/05/26 06:09:08;;;;;;;41.20;12.43;;;;;;;12.45;66.12;101150.94;5044410;28;20041;-75
2023/05/26 06:11:33;;;;;;;40.63;10.20;;;;;;;12.40;66.58;101159.06;5044704;28;20037;-76
2023/05/26 06:13:59;;;;;;;31.63;9.15;;;;;;;12.34;66.59;101160.03;5044787;28;20258;-75
2023/05/26 06:16:24;;;;;;;38.10;9.88;;;;;;;12.37;66.31;101162.28;5044612;28;20021;-76
2023/05/26 06:18:49;;;;;;;33.88;9.85;;;;;;;12.42;65.75;101151.44;5044200;28;20064;-75
2023/05/26 06:21:15;;;;;;;30.73;8.23;;;;;;;12.31;66.43;101160.50;5044348;28;20049;-75
2023/05/26 06:23:40;;;;;;;22.83;8.68;;;;;;;12.21;66.50;101152.94;5044231;28;20309;-75
2023/05/26 06:26:05;;;;;;;29.40;9.67;;;;;;;12.00;67.21;101150.56;5044217;28;20037;-76
2023/05/26 06:28:31;;;;;;;35.08;11.35;;;;;;;12.28;66.91;101161.00;5043207;28;20689;-75
2023/05/26 06:30:56;;;;;;;27.58;10.18;;;;;;;12.23;67.11;101156.25;5044372;28;20029;-75
2023/05/26 06:33:21;;;;;;;33.65;10.70;;;;;;;12.07;67.05;101164.09;5044303;28;20084;-75
2023/05/26 06:35:47;;;;;;;38.57;10.73;;;;;;;11.82;67.27;101169.84;5043993;28;20029;-75
2023/05/26 06:38:12;;;;;;;18.63;9.43;;;;;;;11.91;67.72;101161.06;5043559;28;20278;-75
2023/05/26 06:40:37;;;;;;;21.87;9.30;;;;;;;12.14;66.84;101167.56;5043907;28;20262;-74
2023/05/26 06:43:02;;;;;;;29.97;10.23;;;;;;;12.26;66.37;101174.94;5043997;28;20281;-75
2023/05/26 06:45:28;;;;;;;31.87;10.07;;;;;;;12.14;66.52;101174.94;5044179;28;20372;-75
2023/05/26 06:47:53;;;;;;;31.63;10.50;;;;;;;12.27;66.56;101182.03;5043235;28;21073;-76
2023/05/26 06:50:19;;;;;;;39.73;12.00;;;;;;;12.04;67.13;101172.78;5043813;28;20037;-76
2023/05/26 06:52:44;;;;;;;29.85;10.75;;;;;;;12.37;66.14;101182.25;5043558;28;20289;-76
2023/05/26 06:55:10;;;;;;;35.00;13.02;;;;;;;12.48;65.67;101180.56;5043570;28;20039;-75
2023/05/26 06:57:35;;;;;;;30.60;11.90;;;;;;;12.57;65.67;101175.53;5043781;28;20060;-76
2023/05/26 07:00:00;;;;;;;28.85;12.45;;;;;;;12.75;65.13;101172.84;5043417;28;20045;-75
2023/05/26 07:02:25;;;;;;;35.28;11.90;;;;;;;12.67;65.27;101185.03;5043608;28;20107;-75
2023/05/26 07:04:51;;;;;;;41.37;12.40;;;;;;;12.87;64.90;101181.84;5043626;28;20132;-76
2023/05/26 07:07:16;;;;;;;24.70;10.90;;;;;;;12.99;64.31;101180.94;5043477;28;20254;-75
2023/05/26 07:09:41;;;;;;;28.43;10.17;;;;;;;12.99;64.19;101189.16;5042818;28;20274;-74
2023/05/26 07:12:07;;;;;;;29.93;11.77;;;;;;;12.91;64.70;101191.22;5043622;28;20257;-78
2023/05/26 07:14:32;;;;;;;28.30;10.68;;;;;;;12.60;66.05;101196.09;5043329;28;20266;-75
2023/05/26 07:16:57;;;;;;;29.23;12.90;;;;;;;12.77;65.20;101196.16;5043365;28;20029;-76
2023/05/26 07:19:22;;;;;;;27.03;10.03;;;;;;;12.90;65.47;101200.50;5042903;28;20981;-75
2023/05/26 07:21:48;;;;;;;29.17;10.20;;;;;;;12.97;64.94;101203.09;5042837;28;20392;-75
2023/05/26 07:24:13;;;;;;;35.38;12.57;;;;;;;12.98;65.11;101204.75;5042051;28;20296;-75
2023/05/26 07:26:38;;;;;;;25.58;9.45;;;;;;;13.03;64.77;101201.28;5042874;28;20056;-75
2023/05/26 07:29:03;;;;;;;29.27;11.30;;;;;;;13.01;63.76;101200.69;5042908;28;20029;-75
2023/05/26 07:31:29;;;;;;;34.05;9.88;;;;;;;13.32;63.50;101209.44;5042825;28;20608;-75
2023/05/26 07:33:54;;;;;;;46.78;12.63;;;;;;;13.41;62.92;101207.13;5043300;28;20024;-76
2023/05/26 07:36:22;;;;;;;31.47;10.23;;;;;;;13.34;63.14;101210.03;5043100;28;20064;-78
2023/05/26 07:38:48;;;;;;;24.35;9.73;;;;;;;13.35;63.18;101206.19;5042443;28;20261;-76
2023/05/26 07:41:13;;;;;;;30.47;11.87;;;;;;;13.28;63.48;101200.88;5043010;28;20838;-76
2023/05/26 07:43:38;;;;;;;31.48;11.30;;;;;;;13.26;64.03;101199.47;5042706;28;20254;-74
2023/05/26 07:46:04;;;;;;;39.00;12.63;;;;;;;13.30;64.12;101195.19;5042878;28;20060;-75
2023/05/26 07:48:29;;;;;;;29.02;10.85;;;;;;;13.38;63.89;101205.69;5042362;28;20265;-76
2023/05/26 07:50:55;;;;;;;23.15;11.65;;;;;;;13.43;63.73;101196.72;5041436;28;20044;-75
2023/05/26 07:53:20;;;;;;;41.23;10.57;;;;;;;13.56;63.50;101198.34;5041438;28;20147;-76
2023/05/26 07:55:45;;;;;;;26.30;10.20;;;;;;;13.53;63.74;101204.28;5042698;28;20281;-76
2023/05/26 07:58:12;;;;;;;27.03;9.97;;;;;;;13.49;63.69;101195.75;5042384;28;20062;-76
2023/05/26 08:00:37;;;;;;;29.05;9.55;;;;;;;13.70;62.99;101198.00;5042633;28;20273;-76
2023/05/26 08:03:04;;;;;;;30.40;10.13;;;;;;;13.51;63.55;101203.72;5042534;28;20041;-76
2023/05/26 08:05:29;;;;;;;26.88;9.80;;;;;;;13.59;63.33;101200.59;5042568;28;20044;-77
2023/05/26 08:07:54;;;;;;;38.27;12.60;;;;;;;13.52;63.46;101199.91;5042200;28;20436;-75
2023/05/26 08:10:20;;;;;;;35.55;11.18;;;;;;;13.53;63.69;101204.28;5042940;28;20262;-77
2023/05/26 08:12:45;;;;;;;29.93;11.87;;;;;;;13.54;64.21;101200.50;5042782;28;20037;-77
2023/05/26 08:15:15;;;;;;;26.80;10.27;;;;;;;13.65;63.50;101204.22;5042642;28;20258;-80
2023/05/26 08:17:43;;;;;;;33.72;11.70;;;;;;;13.83;63.18;101200.38;5042185;28;20506;-79
2023/05/26 08:20:10;;;;;;;23.63;8.30;;;;;;;14.08;61.46;101201.84;5040808;28;20803;-78
2023/05/26 08:22:35;;;;;;;21.52;10.00;;;;;;;14.15;61.52;101196.19;5042586;28;20479;-80
2023/05/26 08:25:01;;;;;;;22.05;9.45;;;;;;;14.22;61.22;101185.00;5046165;28;20025;-77
2023/05/26 08:27:26;;;;;;;24.38;10.20;;;;;;;14.38;62.13;101182.47;5047251;28;20841;-77
2023/05/26 08:29:52;;;;;;;19.88;8.52;;;;;;;14.25;62.00;101190.00;5046864;28;20131;-77
2023/05/26 08:32:17;;;;;;;26.57;9.03;;;;;;;14.22;61.92;101190.47;5046850;28;20028;-77
2023/05/26 08:34:44;;;;;;;32.53;10.38;;;;;;;14.35;60.70;101192.88;5046798;28;20285;-77
2023/05/26 08:37:13;;;;;;;30.27;9.85;;;;;;;14.31;61.85;101191.72;5046484;28;20091;-78
2023/05/26 08:39:40;;;;;;;37.10;8.85;;;;;;;14.20;63.03;101189.91;5045896;28;20037;-77
2023/05/26 08:42:07;;;;;;;24.63;10.43;;;;;;;14.39;61.74;101193.19;5046175;28;20758;-75
2023/05/26 08:44:33;;;;;;;37.30;9.75;;;;;;;14.48;60.09;101188.09;5045160;28;20118;-76
2023/05/26 08:47:00;;;;;;;28.52;10.45;;;;;;;14.74;60.65;101193.84;5044017;28;20033;-77
2023/05/26 08:49:30;;;;;;;25.58;10.40;;;;;;;14.61;60.68;101194.22;5045824;28;20060;-77
2023/05/26 08:52:02;;;;;;;21.27;10.32;;;;;;;14.65;61.37;101189.88;5045433;28;20855;-78
2023/05/26 08:54:28;;;;;;;30.20;11.57;;;;;;;14.58;61.15;101193.66;5046403;28;20037;-81
2023/05/26 08:56:55;;;;;;;27.50;9.05;;;;;;;14.76;60.17;101183.44;5046296;28;20029;-79
2023/05/26 08:59:21;;;;;;;25.90;8.70;;;;;;;14.88;59.86;101187.97;5045540;28;20036;-76
2023/05/26 09:01:46;;;;;;;27.98;9.85;;;;;;;14.98;59.55;101190.00;5045778;28;20591;-76
2023/05/26 09:04:11;;;;;;;29.52;10.05;;;;;;;14.94;59.64;101195.19;5045860;28;20067;-77
2023/05/26 09:06:47;;;;;;;27.00;11.37;;;;;;;15.02;58.95;101191.13;5046461;28;20033;-77
2023/05/26 09:09:14;;;;;;;26.38;10.65;;;;;;;15.23;59.33;101194.91;5045971;28;20273;-77
2023/05/26 09:11:43;;;;;;;23.65;10.20;;;;;;;15.39;58.76;101195.03;5045867;28;20041;-76
2023/05/26 09:14:13;;;;;;;41.30;10.38;;;;;;;15.22;58.96;101190.47;5046199;28;20041;-76
2023/05/26 09:16:38;;;;;;;27.55;9.77;;;;;;;15.16;58.97;101191.53;5044670;28;20028;-77
2023/05/26 09:19:03;;;;;;;24.47;9.23;;;;;;;15.58;58.10;101191.88;5045992;28;20406;-76
2023/05/26 09:21:30;;;;;;;25.45;8.88;;;;;;;15.87;57.50;101189.56;5045729;28;20278;-77
2023/05/26 09:23:57;;;;;;;23.52;10.50;;;;;;;15.91;58.27;101189.88;5046068;28;20783;-77
2023/05/26 09:26:30;;;;;;;30.70;9.98;;;;;;;15.87;58.30;101178.56;5046110;28;20151;-77
2023/05/26 09:28:55;;;;;;;27.90;10.23;;;;;;;15.90;57.55;101188.22;5046094;28;20048;-76
2023/05/26 09:31:20;;;;;;;24.08;9.85;;;;;;;16.03;57.41;101191.63;5045909;28;20390;-76
2023/05/26 09:33:46;;;;;;;30.77;10.63;;;;;;;16.08;57.10;101194.41;5045573;28;20036;-76
2023/05/26 09:36:12;;;;;;;42.20;8.85;;;;;;;16.18;57.42;101188.94;5044290;28;20383;-76
2023/05/26 09:38:40;;;;;;;22.02;9.88;;;;;;;16.19;57.16;101189.78;5044916;28;20067;-76
2023/05/26 09:41:06;;;;;;;33.97;9.98;;;;;;;16.20;56.64;101197.75;5045482;28;20032;-77
2023/05/26 09:43:32;;;;;;;33.10;10.10;;;;;;;16.25;56.58;101183.19;5045302;28;20090;-78
2023/05/26 09:45:58;;;;;;;25.30;6.47;;;;;;;16.25;57.49;101182.38;5045190;28;20043;-77
2023/05/26 09:48:23;;;;;;;24.77;9.52;;;;;;;16.29;57.21;101186.25;5045349;28;20453;-79
2023/05/26 09:50:51;;;;;;;27.07;7.43;;;;;;;16.35;54.49;101176.91;5045539;28;20052;-82
2023/05/26 09:53:16;;;;;;;25.15;7.45;;;;;;;16.32;56.10;101188.44;5045489;28;20253;-77
2023/05/26 09:55:43;;;;;;;20.50;7.65;;;;;;;16.52;56.64;101186.84;5045325;28;20033;-76
2023/05/26 09:58:10;;;;;;;24.35;8.43;;;;;;;16.69;55.75;101187.47;5044807;28;20045;-74
2023/05/26 10:00:38;;;;;;;19.90;7.10;;;;;;;16.77;55.61;101185.28;5045008;28;20037;-74
2023/05/26 10:03:05;;;;;;;22.75;7.93;;;;;;;16.75;55.67;101187.47;5045168;28;20036;-75
2023/05/26 10:05:38;;;;;;;21.80;7.13;;;;;;;16.93;55.88;101194.41;5045055;28;20051;-72
2023/05/26 10:08:06;;;;;;;35.88;7.53;;;;;;;16.86;55.54;101180.88;5044852;28;20055;-73
2023/05/26 10:10:33;;;;;;;27.60;6.55;;;;;;;17.10;54.67;101185.88;5045261;28;20082;-75
2023/05/26 10:12:58;;;;;;;20.23;6.50;;;;;;;17.20;53.93;101184.25;5044941;28;20474;-74
2023/05/26 10:15:25;;;;;;;25.90;6.78;;;;;;;17.26;54.12;101185.91;5044783;28;20098;-73
2023/05/26 10:17:50;;;;;;;21.83;6.55;;;;;;;17.34;53.33;101174.34;5044876;28;20529;-73
2023/05/26 10:20:16;;;;;;;35.25;8.00;;;;;;;17.42;53.65;101174.88;5044016;28;20898;-73
2023/05/26 10:22:54;;;;;;;33.95;7.80;;;;;;;17.34;53.92;101185.38;5044871;28;20633;-74
2023/05/26 10:25:30;;;;;;;19.85;6.60;;;;;;;17.23;52.25;101173.50;5044441;28;20028;-74
2023/05/26 10:28:06;;;;;;;18.85;6.18;;;;;;;17.32;53.30;101164.69;5044484;28;20094;-73
2023/05/26 10:30:32;;;;;;;24.92;6.85;;;;;;;17.37;53.08;101171.03;5044566;28;20081;-74
2023/05/26 10:33:08;;;;;;;25.48;5.22;;;;;;;17.26;54.29;101166.63;5044480;28;20037;-74
2023/05/26 10:35:33;;;;;;;24.17;6.88;;;;;;;17.45;53.02;101174.34;5044619;28;20441;-74
2023/05/26 10:38:01;;;;;;;22.93;6.03;;;;;;;17.37;52.91;101165.50;5044074;28;20028;-73
2023/05/26 10:40:29;;;;;;;28.38;7.72;;;;;;;17.43;52.34;101171.03;5044141;28;20037;-73
2023/05/26 10:42:59;;;;;;;18.45;6.05;;;;;;;17.43;52.84;101171.03;5044280;28;20355;-74
2023/05/26 10:45:24;;;;;;;25.55;7.35;;;;;;;17.58;52.41;101165.50;5042825;28;20032;-75
2023/05/26 10:47:50;;;;;;;28.15;6.22;;;;;;;17.62;52.33;101168.50;5043655;28;20608;-74
2023/05/26 10:50:15;;;;;;;35.23;6.93;;;;;;;17.65;51.32;101167.13;5043596;28;20047;-73
2023/05/26 10:52:47;;;;;;;26.77;7.23;;;;;;;17.70;52.23;101165.19;5044345;28;20258;-73
2023/05/26 10:55:29;;;;;;;25.50;6.82;;;;;;;17.76;51.25;101166.00;5042631;28;20261;-72
2023/05/26 10:58:14;;;;;;;24.98;7.70;;;;;;;17.82;51.41;101162.13;5043936;28;20126;-73
2023/05/26 11:00:43;;;;;;;23.35;7.47;;;;;;;17.91;51.93;101156.03;5043830;28;20110;-72
2023/05/26 11:03:32;;;;;;;21.83;5.97;;;;;;;17.96;52.17;101164.28;5044023;28;20166;-73
2023/05/26 11:05:57;;;;;;;42.95;7.22;;;;;;;18.04;52.22;101155.44;5043913;28;20120;-72
2023/05/26 11:08:22;;;;;;;24.03;6.17;;;;;;;18.12;51.97;101154.03;5043787;28;20513;-72
2023/05/26 11:11:04;;;;;;;18.80;6.38;;;;;;;18.14;50.31;101159.28;5043972;28;20262;-73
2023/05/26 11:13:40;;;;;;;28.25;6.57;;;;;;;18.25;51.13;101140.75;5043732;28;20035;-73